sensor_id;sensor_type;location;lat;lon;timestamp;P1;durP1;ratioP1;P2;durP2;ratioP2
38609;SDS011;24367;51.640;9.566;2023-01-23T00:00:50;2.60;;;1.50;;
38609;SDS011;24367;51.640;9.566;2023-01-23T00:03:16;2.42;;;1.67;;
38609;SDS011;24367;51.640;9.566;2023-01-23T00:05:44;3.22;;;1.75;;
38609;SDS011;24367;51.640;9.566;2023-01-23T00:08:11;2.85;;;1.80;;
38609;SDS011;24367;51.640;9.566;2023-01-23T00:10:37;3.20;;;1.50;;
38609;SDS011;24367;51.640;9.566;2023-01-23T00:13:04;2.17;;;1.60;;
38609;SDS011;24367;51.640;9.566;2023-01-23T00:15:31;2.08;;;1.52;;
38609;SDS011;24367;51.640;9.566;2023-01-23T00:17:58;2.13;;;1.63;;
38609;SDS011;24367;51.640;9.566;2023-01-23T00:20:24;2.00;;;1.35;;
38609;SDS011;24367;51.640;9.566;2023-01-23T00:22:52;2.03;;;1.40;;
38609;SDS011;24367;51.640;9.566;2023-01-23T00:25:19;1.98;;;1.35;;
38609;SDS011;24367;51.640;9.566;2023-01-23T00:27:45;2.58;;;1.60;;
38609;SDS011;24367;51.640;9.566;2023-01-23T00:30:12;2.25;;;1.55;;
38609;SDS011;24367;51.640;9.566;2023-01-23T00:32:40;2.38;;;1.67;;
38609;SDS011;24367;51.640;9.566;2023-01-23T00:35:07;2.00;;;1.40;;
38609;SDS011;24367;51.640;9.566;2023-01-23T00:37:33;2.08;;;1.60;;
38609;SDS011;24367;51.640;9.566;2023-01-23T00:40:02;1.65;;;1.40;;
38609;SDS011;24367;51.640;9.566;2023-01-23T00:42:29;2.05;;;1.60;;
38609;SDS011;24367;51.640;9.566;2023-01-23T00:44:58;1.75;;;1.40;;
38609;SDS011;24367;51.640;9.566;2023-01-23T00:47:25;1.60;;;1.30;;
38609;SDS011;24367;51.640;9.566;2023-01-23T00:49:51;1.75;;;1.27;;
38609;SDS011;24367;51.640;9.566;2023-01-23T00:52:19;1.83;;;1.40;;
38609;SDS011;24367;51.640;9.566;2023-01-23T00:54:46;2.15;;;1.60;;
38609;SDS011;24367;51.640;9.566;2023-01-23T00:57:14;2.10;;;1.60;;
38609;SDS011;24367;51.640;9.566;2023-01-23T00:59:40;1.48;;;1.25;;
38609;SDS011;24367;51.640;9.566;2023-01-23T01:02:07;1.80;;;1.30;;
38609;SDS011;24367;51.640;9.566;2023-01-23T01:04:33;2.63;;;1.70;;
38609;SDS011;24367;51.640;9.566;2023-01-23T01:07:01;1.98;;;1.52;;
38609;SDS011;24367;51.640;9.566;2023-01-23T01:09:27;2.05;;;1.52;;
38609;SDS011;24367;51.640;9.566;2023-01-23T01:11:54;2.70;;;1.85;;
38609;SDS011;24367;51.640;9.566;2023-01-23T01:14:22;1.88;;;1.50;;
38609;SDS011;24367;51.640;9.566;2023-01-23T01:16:48;2.22;;;1.65;;
38609;SDS011;24367;51.640;9.566;2023-01-23T01:19:15;1.83;;;1.27;;
38609;SDS011;24367;51.640;9.566;2023-01-23T01:21:43;2.22;;;1.40;;
38609;SDS011;24367;51.640;9.566;2023-01-23T01:24:10;1.85;;;1.30;;
38609;SDS011;24367;51.640;9.566;2023-01-23T01:26:37;1.98;;;1.30;;
38609;SDS011;24367;51.640;9.566;2023-01-23T01:29:04;2.08;;;1.60;;
38609;SDS011;24367;51.640;9.566;2023-01-23T01:31:32;2.08;;;1.50;;
38609;SDS011;24367;51.640;9.566;2023-01-23T01:33:58;2.00;;;1.55;;
38609;SDS011;24367;51.640;9.566;2023-01-23T01:36:25;1.77;;;1.35;;
38609;SDS011;24367;51.640;9.566;2023-01-23T01:38:52;2.22;;;1.50;;
38609;SDS011;24367;51.640;9.566;2023-01-23T01:41:18;1.80;;;1.27;;
38609;SDS011;24367;51.640;9.566;2023-01-23T01:43:45;1.60;;;1.10;;
38609;SDS011;24367;51.640;9.566;2023-01-23T01:46:14;1.90;;;1.50;;
38609;SDS011;24367;51.640;9.566;2023-01-23T01:48:47;2.28;;;1.52;;
38609;SDS011;24367;51.640;9.566;2023-01-23T01:51:18;1.92;;;1.52;;
38609;SDS011;24367;51.640;9.566;2023-01-23T01:53:48;1.67;;;1.27;;
38609;SDS011;24367;51.640;9.566;2023-01-23T01:56:17;3.03;;;1.20;;
38609;SDS011;24367;51.640;9.566;2023-01-23T01:58:44;1.77;;;1.38;;
38609;SDS011;24367;51.640;9.566;2023-01-23T02:01:12;1.67;;;1.35;;
38609;SDS011;24367;51.640;9.566;2023-01-23T02:03:39;2.30;;;1.63;;
38609;SDS011;24367;51.640;9.566;2023-01-23T02:06:08;2.00;;;1.48;;
38609;SDS011;24367;51.640;9.566;2023-01-23T02:08:37;1.60;;;1.20;;
38609;SDS011;24367;51.640;9.566;2023-01-23T02:11:09;1.80;;;1.30;;
38609;SDS011;24367;51.640;9.566;2023-01-23T02:13:36;1.85;;;1.20;;
38609;SDS011;24367;51.640;9.566;2023-01-23T02:16:07;1.80;;;1.30;;
38609;SDS011;24367;51.640;9.566;2023-01-23T02:18:37;1.85;;;1.20;;
38609;SDS011;24367;51.640;9.566;2023-01-23T02:21:10;1.73;;;1.48;;
38609;SDS011;24367;51.640;9.566;2023-01-23T02:23:47;2.00;;;1.30;;
38609;SDS011;24367;51.640;9.566;2023-01-23T02:26:24;2.05;;;1.40;;
38609;SDS011;24367;51.640;9.566;2023-01-23T02:28:53;1.88;;;1.40;;
38609;SDS011;24367;51.640;9.566;2023-01-23T02:31:24;2.08;;;1.33;;
38609;SDS011;24367;51.640;9.566;2023-01-23T02:33:53;1.60;;;1.10;;
38609;SDS011;24367;51.640;9.566;2023-01-23T02:36:21;1.77;;;1.30;;
38609;SDS011;24367;51.640;9.566;2023-01-23T02:38:51;1.83;;;1.40;;
38609;SDS011;24367;51.640;9.566;2023-01-23T02:41:22;2.00;;;1.20;;
38609;SDS011;24367;51.640;9.566;2023-01-23T02:43:54;1.63;;;1.10;;
38609;SDS011;24367;51.640;9.566;2023-01-23T02:46:23;2.05;;;1.52;;
38609;SDS011;24367;51.640;9.566;2023-01-23T02:48:50;1.88;;;1.42;;
38609;SDS011;24367;51.640;9.566;2023-01-23T02:51:17;1.80;;;1.40;;
38609;SDS011;24367;51.640;9.566;2023-01-23T02:53:45;1.80;;;1.35;;
38609;SDS011;24367;51.640;9.566;2023-01-23T02:56:12;1.77;;;1.30;;
38609;SDS011;24367;51.640;9.566;2023-01-23T02:58:40;3.10;;;1.30;;
38609;SDS011;24367;51.640;9.566;2023-01-23T03:01:25;2.03;;;1.42;;
38609;SDS011;24367;51.640;9.566;2023-01-23T03:03:52;1.80;;;1.30;;
38609;SDS011;24367;51.640;9.566;2023-01-23T03:06:21;2.08;;;1.38;;
38609;SDS011;24367;51.640;9.566;2023-01-23T03:08:49;2.75;;;1.30;;
38609;SDS011;24367;51.640;9.566;2023-01-23T03:11:16;1.67;;;1.13;;
38609;SDS011;24367;51.640;9.566;2023-01-23T03:13:45;1.60;;;1.20;;
38609;SDS011;24367;51.640;9.566;2023-01-23T03:16:12;1.77;;;1.27;;
38609;SDS011;24367;51.640;9.566;2023-01-23T03:18:39;1.88;;;1.30;;
38609;SDS011;24367;51.640;9.566;2023-01-23T03:21:05;1.77;;;1.23;;
38609;SDS011;24367;51.640;9.566;2023-01-23T03:23:32;1.83;;;1.38;;
38609;SDS011;24367;51.640;9.566;2023-01-23T03:26:00;1.77;;;1.25;;
38609;SDS011;24367;51.640;9.566;2023-01-23T03:28:29;1.55;;;1.20;;
38609;SDS011;24367;51.640;9.566;2023-01-23T03:31:15;2.03;;;1.40;;
38609;SDS011;24367;51.640;9.566;2023-01-23T03:33:43;1.50;;;1.20;;
38609;SDS011;24367;51.640;9.566;2023-01-23T03:36:11;1.75;;;1.30;;
38609;SDS011;24367;51.640;9.566;2023-01-23T03:38:38;2.20;;;1.65;;
38609;SDS011;24367;51.640;9.566;2023-01-23T03:41:26;2.08;;;1.45;;
38609;SDS011;24367;51.640;9.566;2023-01-23T03:43:56;1.80;;;1.13;;
38609;SDS011;24367;51.640;9.566;2023-01-23T03:46:25;1.85;;;1.48;;
38609;SDS011;24367;51.640;9.566;2023-01-23T03:48:51;1.98;;;1.50;;
38609;SDS011;24367;51.640;9.566;2023-01-23T03:51:18;1.88;;;1.20;;
38609;SDS011;24367;51.640;9.566;2023-01-23T03:53:44;1.30;;;1.10;;
38609;SDS011;24367;51.640;9.566;2023-01-23T03:56:11;1.55;;;1.00;;
38609;SDS011;24367;51.640;9.566;2023-01-23T03:58:39;1.67;;;1.27;;
38609;SDS011;24367;51.640;9.566;2023-01-23T04:01:06;1.80;;;1.30;;
38609;SDS011;24367;51.640;9.566;2023-01-23T04:03:38;1.80;;;1.33;;
38609;SDS011;24367;51.640;9.566;2023-01-23T04:06:05;1.70;;;1.23;;
38609;SDS011;24367;51.640;9.566;2023-01-23T04:08:32;2.42;;;1.73;;
38609;SDS011;24367;51.640;9.566;2023-01-23T04:10:59;1.73;;;1.40;;
38609;SDS011;24367;51.640;9.566;2023-01-23T04:13:27;1.77;;;1.38;;
38609;SDS011;24367;51.640;9.566;2023-01-23T04:15:54;1.83;;;1.30;;
38609;SDS011;24367;51.640;9.566;2023-01-23T04:18:20;1.70;;;1.48;;
38609;SDS011;24367;51.640;9.566;2023-01-23T04:20:48;1.92;;;1.50;;
38609;SDS011;24367;51.640;9.566;2023-01-23T04:23:15;1.90;;;1.40;;
38609;SDS011;24367;51.640;9.566;2023-01-23T04:25:42;2.20;;;1.50;;
38609;SDS011;24367;51.640;9.566;2023-01-23T04:28:12;3.17;;;1.50;;
38609;SDS011;24367;51.640;9.566;2023-01-23T04:30:38;1.95;;;1.60;;
38609;SDS011;24367;51.640;9.566;2023-01-23T04:33:13;1.98;;;1.45;;
38609;SDS011;24367;51.640;9.566;2023-01-23T04:35:40;1.70;;;1.35;;
38609;SDS011;24367;51.640;9.566;2023-01-23T04:38:16;1.90;;;1.60;;
38609;SDS011;24367;51.640;9.566;2023-01-23T04:40:43;1.58;;;1.27;;
38609;SDS011;24367;51.640;9.566;2023-01-23T04:43:10;1.90;;;1.50;;
38609;SDS011;24367;51.640;9.566;2023-01-23T04:45:42;2.00;;;1.42;;
38609;SDS011;24367;51.640;9.566;2023-01-23T04:48:33;1.60;;;1.40;;
38609;SDS011;24367;51.640;9.566;2023-01-23T04:51:01;1.90;;;1.30;;
38609;SDS011;24367;51.640;9.566;2023-01-23T04:53:28;1.73;;;1.35;;
38609;SDS011;24367;51.640;9.566;2023-01-23T04:55:58;1.85;;;1.30;;
38609;SDS011;24367;51.640;9.566;2023-01-23T04:58:25;1.40;;;1.20;;
38609;SDS011;24367;51.640;9.566;2023-01-23T05:00:59;2.03;;;1.50;;
38609;SDS011;24367;51.640;9.566;2023-01-23T05:03:29;1.73;;;1.20;;
38609;SDS011;24367;51.640;9.566;2023-01-23T05:05:57;1.98;;;1.45;;
38609;SDS011;24367;51.640;9.566;2023-01-23T05:08:24;1.90;;;1.40;;
38609;SDS011;24367;51.640;9.566;2023-01-23T05:11:04;1.80;;;1.33;;
38609;SDS011;24367;51.640;9.566;2023-01-23T05:13:31;1.77;;;1.45;;
38609;SDS011;24367;51.640;9.566;2023-01-23T05:15:58;2.10;;;1.45;;
38609;SDS011;24367;51.640;9.566;2023-01-23T05:18:25;1.83;;;1.40;;
38609;SDS011;24367;51.640;9.566;2023-01-23T05:20:52;1.65;;;1.30;;
38609;SDS011;24367;51.640;9.566;2023-01-23T05:23:19;2.45;;;1.55;;
38609;SDS011;24367;51.640;9.566;2023-01-23T05:25:50;1.75;;;1.15;;
38609;SDS011;24367;51.640;9.566;2023-01-23T05:28:16;1.90;;;1.40;;
38609;SDS011;24367;51.640;9.566;2023-01-23T05:30:47;1.55;;;1.13;;
38609;SDS011;24367;51.640;9.566;2023-01-23T05:33:20;2.13;;;1.42;;
38609;SDS011;24367;51.640;9.566;2023-01-23T05:35:47;2.05;;;1.35;;
38609;SDS011;24367;51.640;9.566;2023-01-23T05:38:14;2.22;;;1.50;;
38609;SDS011;24367;51.640;9.566;2023-01-23T05:40:41;3.30;;;1.30;;
38609;SDS011;24367;51.640;9.566;2023-01-23T05:43:15;2.00;;;1.42;;
38609;SDS011;24367;51.640;9.566;2023-01-23T05:46:18;1.95;;;1.50;;
38609;SDS011;24367;51.640;9.566;2023-01-23T05:48:48;1.83;;;1.20;;
38609;SDS011;24367;51.640;9.566;2023-01-23T05:51:15;1.50;;;1.10;;
38609;SDS011;24367;51.640;9.566;2023-01-23T05:53:42;1.88;;;1.40;;
38609;SDS011;24367;51.640;9.566;2023-01-23T05:56:09;1.60;;;1.10;;
38609;SDS011;24367;51.640;9.566;2023-01-23T05:58:59;1.65;;;1.17;;
38609;SDS011;24367;51.640;9.566;2023-01-23T06:01:37;1.95;;;1.30;;
38609;SDS011;24367;51.640;9.566;2023-01-23T06:04:23;3.92;;;1.60;;
38609;SDS011;24367;51.640;9.566;2023-01-23T06:07:06;1.60;;;1.08;;
38609;SDS011;24367;51.640;9.566;2023-01-23T06:09:35;2.88;;;1.55;;
38609;SDS011;24367;51.640;9.566;2023-01-23T06:12:02;2.53;;;1.52;;
38609;SDS011;24367;51.640;9.566;2023-01-23T06:14:30;3.65;;;1.42;;
38609;SDS011;24367;51.640;9.566;2023-01-23T06:16:56;2.67;;;1.63;;
38609;SDS011;24367;51.640;9.566;2023-01-23T06:19:23;2.75;;;1.52;;
38609;SDS011;24367;51.640;9.566;2023-01-23T06:21:49;3.67;;;1.55;;
38609;SDS011;24367;51.640;9.566;2023-01-23T06:24:17;15.57;;;1.80;;
38609;SDS011;24367;51.640;9.566;2023-01-23T06:26:44;5.20;;;2.10;;
38609;SDS011;24367;51.640;9.566;2023-01-23T06:29:11;5.35;;;2.60;;
38609;SDS011;24367;51.640;9.566;2023-01-23T06:31:39;5.20;;;2.72;;
38609;SDS011;24367;51.640;9.566;2023-01-23T06:34:06;4.18;;;1.67;;
38609;SDS011;24367;51.640;9.566;2023-01-23T06:36:39;3.13;;;1.70;;
38609;SDS011;24367;51.640;9.566;2023-01-23T06:39:06;2.83;;;1.70;;
38609;SDS011;24367;51.640;9.566;2023-01-23T06:41:38;2.45;;;1.55;;
38609;SDS011;24367;51.640;9.566;2023-01-23T06:44:06;3.28;;;1.40;;
38609;SDS011;24367;51.640;9.566;2023-01-23T06:46:34;3.80;;;1.75;;
38609;SDS011;24367;51.640;9.566;2023-01-23T06:49:02;2.25;;;1.50;;
38609;SDS011;24367;51.640;9.566;2023-01-23T06:51:31;4.68;;;1.70;;
38609;SDS011;24367;51.640;9.566;2023-01-23T06:53:58;5.20;;;1.75;;
38609;SDS011;24367;51.640;9.566;2023-01-23T06:56:24;4.43;;;1.38;;
38609;SDS011;24367;51.640;9.566;2023-01-23T06:58:51;2.67;;;1.63;;
38609;SDS011;24367;51.640;9.566;2023-01-23T07:01:28;4.00;;;1.30;;
38609;SDS011;24367;51.640;9.566;2023-01-23T07:04:19;2.40;;;1.60;;
38609;SDS011;24367;51.640;9.566;2023-01-23T07:06:48;5.05;;;1.55;;
38609;SDS011;24367;51.640;9.566;2023-01-23T07:09:17;2.00;;;1.35;;
38609;SDS011;24367;51.640;9.566;2023-01-23T07:12:00;2.25;;;1.38;;
38609;SDS011;24367;51.640;9.566;2023-01-23T07:14:29;2.65;;;1.35;;
38609;SDS011;24367;51.640;9.566;2023-01-23T07:16:55;2.67;;;1.30;;
38609;SDS011;24367;51.640;9.566;2023-01-23T07:19:24;2.38;;;1.50;;
38609;SDS011;24367;51.640;9.566;2023-01-23T07:21:52;2.67;;;1.70;;
38609;SDS011;24367;51.640;9.566;2023-01-23T07:24:19;2.80;;;1.65;;
38609;SDS011;24367;51.640;9.566;2023-01-23T07:26:45;2.15;;;1.40;;
38609;SDS011;24367;51.640;9.566;2023-01-23T07:29:12;3.30;;;1.50;;
38609;SDS011;24367;51.640;9.566;2023-01-23T07:31:39;2.63;;;1.60;;
38609;SDS011;24367;51.640;9.566;2023-01-23T07:34:05;2.10;;;1.40;;
38609;SDS011;24367;51.640;9.566;2023-01-23T07:36:33;2.22;;;1.30;;
38609;SDS011;24367;51.640;9.566;2023-01-23T07:38:59;3.90;;;1.42;;
38609;SDS011;24367;51.640;9.566;2023-01-23T07:41:26;1.90;;;1.25;;
38609;SDS011;24367;51.640;9.566;2023-01-23T07:43:52;2.22;;;1.60;;
38609;SDS011;24367;51.640;9.566;2023-01-23T07:46:19;3.50;;;1.52;;
38609;SDS011;24367;51.640;9.566;2023-01-23T07:48:47;2.40;;;1.35;;
38609;SDS011;24367;51.640;9.566;2023-01-23T07:51:14;2.42;;;1.50;;
38609;SDS011;24367;51.640;9.566;2023-01-23T07:53:42;2.15;;;1.40;;
38609;SDS011;24367;51.640;9.566;2023-01-23T07:56:08;2.97;;;1.60;;
38609;SDS011;24367;51.640;9.566;2023-01-23T07:58:35;2.05;;;1.60;;
38609;SDS011;24367;51.640;9.566;2023-01-23T08:01:06;2.42;;;1.70;;
38609;SDS011;24367;51.640;9.566;2023-01-23T08:03:33;2.55;;;1.50;;
38609;SDS011;24367;51.640;9.566;2023-01-23T08:06:00;2.30;;;1.55;;
38609;SDS011;24367;51.640;9.566;2023-01-23T08:08:28;3.03;;;1.67;;
38609;SDS011;24367;51.640;9.566;2023-01-23T08:11:03;1.90;;;1.48;;
38609;SDS011;24367;51.640;9.566;2023-01-23T08:13:30;2.20;;;1.33;;
38609;SDS011;24367;51.640;9.566;2023-01-23T08:15:56;2.00;;;1.20;;
38609;SDS011;24367;51.640;9.566;2023-01-23T08:18:23;2.67;;;1.73;;
38609;SDS011;24367;51.640;9.566;2023-01-23T08:20:53;3.17;;;1.80;;
38609;SDS011;24367;51.640;9.566;2023-01-23T08:23:20;2.80;;;1.88;;
38609;SDS011;24367;51.640;9.566;2023-01-23T08:25:50;2.35;;;1.70;;
38609;SDS011;24367;51.640;9.566;2023-01-23T08:28:19;2.30;;;1.60;;
38609;SDS011;24367;51.640;9.566;2023-01-23T08:30:46;2.60;;;1.40;;
38609;SDS011;24367;51.640;9.566;2023-01-23T08:33:13;3.30;;;1.90;;
38609;SDS011;24367;51.640;9.566;2023-01-23T08:35:46;1.90;;;1.50;;
38609;SDS011;24367;51.640;9.566;2023-01-23T08:40:40;2.95;;;1.70;;
38609;SDS011;24367;51.640;9.566;2023-01-23T08:43:06;3.10;;;1.95;;
38609;SDS011;24367;51.640;9.566;2023-01-23T08:45:36;2.60;;;1.65;;
38609;SDS011;24367;51.640;9.566;2023-01-23T08:48:02;4.15;;;1.48;;
38609;SDS011;24367;51.640;9.566;2023-01-23T08:50:29;2.83;;;1.88;;
38609;SDS011;24367;51.640;9.566;2023-01-23T08:52:55;2.47;;;1.67;;
38609;SDS011;24367;51.640;9.566;2023-01-23T08:55:21;2.75;;;1.80;;
38609;SDS011;24367;51.640;9.566;2023-01-23T08:57:48;2.67;;;1.88;;
38609;SDS011;24367;51.640;9.566;2023-01-23T09:00:15;3.30;;;1.88;;
38609;SDS011;24367;51.640;9.566;2023-01-23T09:02:43;2.53;;;1.60;;
38609;SDS011;24367;51.640;9.566;2023-01-23T09:05:09;2.95;;;1.70;;
38609;SDS011;24367;51.640;9.566;2023-01-23T09:07:36;2.70;;;1.52;;
38609;SDS011;24367;51.640;9.566;2023-01-23T09:10:03;3.70;;;1.65;;
38609;SDS011;24367;51.640;9.566;2023-01-23T09:12:30;2.33;;;1.70;;
38609;SDS011;24367;51.640;9.566;2023-01-23T09:14:59;3.08;;;1.88;;
38609;SDS011;24367;51.640;9.566;2023-01-23T09:17:26;2.42;;;1.60;;
38609;SDS011;24367;51.640;9.566;2023-01-23T09:19:54;2.38;;;1.60;;
38609;SDS011;24367;51.640;9.566;2023-01-23T09:22:20;3.80;;;2.00;;
38609;SDS011;24367;51.640;9.566;2023-01-23T09:24:47;3.45;;;1.85;;
38609;SDS011;24367;51.640;9.566;2023-01-23T09:27:13;2.72;;;1.90;;
38609;SDS011;24367;51.640;9.566;2023-01-23T09:29:40;4.45;;;3.13;;
38609;SDS011;24367;51.640;9.566;2023-01-23T09:32:07;7.13;;;6.05;;
38609;SDS011;24367;51.640;9.566;2023-01-23T09:34:33;6.25;;;5.65;;
38609;SDS011;24367;51.640;9.566;2023-01-23T09:37:01;5.45;;;4.95;;
38609;SDS011;24367;51.640;9.566;2023-01-23T09:39:28;4.80;;;4.30;;
38609;SDS011;24367;51.640;9.566;2023-01-23T09:41:54;4.38;;;3.92;;
38609;SDS011;24367;51.640;9.566;2023-01-23T09:44:21;4.00;;;3.42;;
38609;SDS011;24367;51.640;9.566;2023-01-23T09:46:53;4.70;;;3.63;;
38609;SDS011;24367;51.640;9.566;2023-01-23T09:49:23;5.55;;;3.42;;
38609;SDS011;24367;51.640;9.566;2023-01-23T09:51:53;4.57;;;3.15;;
38609;SDS011;24367;51.640;9.566;2023-01-23T09:54:27;3.85;;;3.03;;
38609;SDS011;24367;51.640;9.566;2023-01-23T09:56:56;3.30;;;2.70;;
38609;SDS011;24367;51.640;9.566;2023-01-23T09:59:26;3.53;;;2.65;;
38609;SDS011;24367;51.640;9.566;2023-01-23T10:01:55;3.50;;;3.00;;
38609;SDS011;24367;51.640;9.566;2023-01-23T10:04:21;3.65;;;2.88;;
38609;SDS011;24367;51.640;9.566;2023-01-23T10:06:59;3.35;;;2.75;;
38609;SDS011;24367;51.640;9.566;2023-01-23T10:12:05;3.50;;;2.58;;
38609;SDS011;24367;51.640;9.566;2023-01-23T10:14:44;4.00;;;2.83;;
38609;SDS011;24367;51.640;9.566;2023-01-23T10:17:19;6.00;;;3.20;;
38609;SDS011;24367;51.640;9.566;2023-01-23T10:19:56;3.40;;;2.55;;
38609;SDS011;24367;51.640;9.566;2023-01-23T10:22:32;3.58;;;2.70;;
38609;SDS011;24367;51.640;9.566;2023-01-23T10:25:06;4.63;;;2.45;;
38609;SDS011;24367;51.640;9.566;2023-01-23T10:27:37;3.13;;;2.65;;
38609;SDS011;24367;51.640;9.566;2023-01-23T10:30:12;3.72;;;2.30;;
38609;SDS011;24367;51.640;9.566;2023-01-23T10:32:44;3.38;;;2.78;;
38609;SDS011;24367;51.640;9.566;2023-01-23T10:35:15;3.70;;;2.60;;
38609;SDS011;24367;51.640;9.566;2023-01-23T10:37:44;3.00;;;2.45;;
38609;SDS011;24367;51.640;9.566;2023-01-23T10:40:16;3.58;;;2.78;;
38609;SDS011;24367;51.640;9.566;2023-01-23T10:43:03;6.72;;;2.30;;
38609;SDS011;24367;51.640;9.566;2023-01-23T10:45:36;3.08;;;2.40;;
38609;SDS011;24367;51.640;9.566;2023-01-23T10:48:02;3.13;;;2.30;;
38609;SDS011;24367;51.640;9.566;2023-01-23T10:50:52;3.10;;;2.53;;
38609;SDS011;24367;51.640;9.566;2023-01-23T10:53:19;3.63;;;2.50;;
38609;SDS011;24367;51.640;9.566;2023-01-23T10:55:48;3.78;;;2.20;;
38609;SDS011;24367;51.640;9.566;2023-01-23T10:58:24;3.08;;;2.50;;
38609;SDS011;24367;51.640;9.566;2023-01-23T11:00:54;3.13;;;2.40;;
38609;SDS011;24367;51.640;9.566;2023-01-23T11:03:25;3.20;;;2.40;;
38609;SDS011;24367;51.640;9.566;2023-01-23T11:05:55;3.15;;;2.35;;
38609;SDS011;24367;51.640;9.566;2023-01-23T11:08:23;2.90;;;2.10;;
38609;SDS011;24367;51.640;9.566;2023-01-23T11:10:53;3.25;;;2.53;;
38609;SDS011;24367;51.640;9.566;2023-01-23T11:13:25;3.63;;;2.38;;
38609;SDS011;24367;51.640;9.566;2023-01-23T11:15:53;3.20;;;2.28;;
38609;SDS011;24367;51.640;9.566;2023-01-23T11:18:28;3.30;;;2.60;;
38609;SDS011;24367;51.640;9.566;2023-01-23T11:20:57;3.22;;;2.70;;
38609;SDS011;24367;51.640;9.566;2023-01-23T11:23:24;2.80;;;2.08;;
38609;SDS011;24367;51.640;9.566;2023-01-23T11:25:51;3.40;;;2.10;;
38609;SDS011;24367;51.640;9.566;2023-01-23T11:28:21;4.57;;;2.65;;
38609;SDS011;24367;51.640;9.566;2023-01-23T11:30:51;4.38;;;2.95;;
38609;SDS011;24367;51.640;9.566;2023-01-23T11:33:24;3.10;;;2.55;;
38609;SDS011;24367;51.640;9.566;2023-01-23T11:35:59;3.60;;;2.90;;
38609;SDS011;24367;51.640;9.566;2023-01-23T11:38:30;3.30;;;2.53;;
38609;SDS011;24367;51.640;9.566;2023-01-23T11:41:02;3.67;;;2.50;;
38609;SDS011;24367;51.640;9.566;2023-01-23T11:43:29;2.92;;;2.33;;
38609;SDS011;24367;51.640;9.566;2023-01-23T11:46:06;3.25;;;2.40;;
38609;SDS011;24367;51.640;9.566;2023-01-23T11:48:48;4.35;;;2.35;;
38609;SDS011;24367;51.640;9.566;2023-01-23T11:51:23;3.53;;;2.55;;
38609;SDS011;24367;51.640;9.566;2023-01-23T11:53:53;3.67;;;2.70;;
38609;SDS011;24367;51.640;9.566;2023-01-23T11:56:32;3.60;;;2.60;;
38609;SDS011;24367;51.640;9.566;2023-01-23T11:59:18;2.88;;;2.30;;
38609;SDS011;24367;51.640;9.566;2023-01-23T12:01:56;3.50;;;2.50;;
38609;SDS011;24367;51.640;9.566;2023-01-23T12:07:30;3.20;;;2.42;;
38609;SDS011;24367;51.640;9.566;2023-01-23T12:10:07;5.18;;;2.72;;
38609;SDS011;24367;51.640;9.566;2023-01-23T12:12:49;3.10;;;2.58;;
38609;SDS011;24367;51.640;9.566;2023-01-23T12:15:23;3.53;;;2.38;;
38609;SDS011;24367;51.640;9.566;2023-01-23T12:17:56;3.22;;;2.55;;
38609;SDS011;24367;51.640;9.566;2023-01-23T12:20:30;3.00;;;2.30;;
38609;SDS011;24367;51.640;9.566;2023-01-23T12:23:05;3.05;;;2.35;;
38609;SDS011;24367;51.640;9.566;2023-01-23T12:25:38;3.08;;;2.30;;
38609;SDS011;24367;51.640;9.566;2023-01-23T12:28:12;2.80;;;2.30;;
38609;SDS011;24367;51.640;9.566;2023-01-23T12:30:58;3.45;;;2.53;;
38609;SDS011;24367;51.640;9.566;2023-01-23T12:33:44;3.45;;;2.22;;
38609;SDS011;24367;51.640;9.566;2023-01-23T12:36:19;2.95;;;2.42;;
38609;SDS011;24367;51.640;9.566;2023-01-23T12:38:52;4.03;;;2.03;;
38609;SDS011;24367;51.640;9.566;2023-01-23T12:41:24;2.63;;;2.08;;
38609;SDS011;24367;51.640;9.566;2023-01-23T12:44:00;3.38;;;2.47;;
38609;SDS011;24367;51.640;9.566;2023-01-23T12:46:31;3.00;;;2.30;;
38609;SDS011;24367;51.640;9.566;2023-01-23T12:49:03;3.35;;;2.25;;
38609;SDS011;24367;51.640;9.566;2023-01-23T12:51:39;3.22;;;2.50;;
38609;SDS011;24367;51.640;9.566;2023-01-23T12:54:10;3.30;;;2.50;;
38609;SDS011;24367;51.640;9.566;2023-01-23T12:56:40;2.60;;;1.90;;
38609;SDS011;24367;51.640;9.566;2023-01-23T12:59:12;3.50;;;2.45;;
38609;SDS011;24367;51.640;9.566;2023-01-23T13:01:49;2.97;;;2.22;;
38609;SDS011;24367;51.640;9.566;2023-01-23T13:04:24;2.80;;;2.03;;
38609;SDS011;24367;51.640;9.566;2023-01-23T13:07:06;4.18;;;2.30;;
38609;SDS011;24367;51.640;9.566;2023-01-23T13:09:41;2.75;;;2.15;;
38609;SDS011;24367;51.640;9.566;2023-01-23T13:12:14;2.70;;;2.10;;
38609;SDS011;24367;51.640;9.566;2023-01-23T13:14:47;3.10;;;2.42;;
38609;SDS011;24367;51.640;9.566;2023-01-23T13:17:30;2.95;;;2.25;;
38609;SDS011;24367;51.640;9.566;2023-01-23T13:20:17;3.75;;;2.00;;
38609;SDS011;24367;51.640;9.566;2023-01-23T13:26:10;3.08;;;2.50;;
38609;SDS011;24367;51.640;9.566;2023-01-23T13:29:02;2.50;;;2.10;;
38609;SDS011;24367;51.640;9.566;2023-01-23T13:31:34;3.15;;;2.20;;
38609;SDS011;24367;51.640;9.566;2023-01-23T13:34:04;3.08;;;2.22;;
38609;SDS011;24367;51.640;9.566;2023-01-23T13:40:01;2.88;;;2.30;;
38609;SDS011;24367;51.640;9.566;2023-01-23T13:42:39;3.40;;;2.42;;
38609;SDS011;24367;51.640;9.566;2023-01-23T13:51:29;3.00;;;2.10;;
38609;SDS011;24367;51.640;9.566;2023-01-23T13:53:55;3.38;;;2.42;;
38609;SDS011;24367;51.640;9.566;2023-01-23T13:56:39;3.72;;;2.33;;
38609;SDS011;24367;51.640;9.566;2023-01-23T13:59:13;3.85;;;2.47;;
38609;SDS011;24367;51.640;9.566;2023-01-23T14:01:46;2.72;;;2.03;;
38609;SDS011;24367;51.640;9.566;2023-01-23T14:04:35;3.25;;;2.45;;
38609;SDS011;24367;51.640;9.566;2023-01-23T14:07:26;2.80;;;2.38;;
38609;SDS011;24367;51.640;9.566;2023-01-23T14:10:15;3.08;;;2.10;;
38609;SDS011;24367;51.640;9.566;2023-01-23T14:12:49;2.38;;;1.90;;
38609;SDS011;24367;51.640;9.566;2023-01-23T14:15:17;2.60;;;1.95;;
38609;SDS011;24367;51.640;9.566;2023-01-23T14:18:02;3.08;;;2.38;;
38609;SDS011;24367;51.640;9.566;2023-01-23T14:20:32;3.63;;;2.50;;
38609;SDS011;24367;51.640;9.566;2023-01-23T14:23:03;3.10;;;2.40;;
38609;SDS011;24367;51.640;9.566;2023-01-23T14:25:30;4.13;;;2.40;;
38609;SDS011;24367;51.640;9.566;2023-01-23T14:28:01;4.85;;;2.42;;
38609;SDS011;24367;51.640;9.566;2023-01-23T14:30:28;3.92;;;2.03;;
38609;SDS011;24367;51.640;9.566;2023-01-23T14:32:55;5.05;;;2.20;;
38609;SDS011;24367;51.640;9.566;2023-01-23T14:35:24;4.75;;;2.20;;
38609;SDS011;24367;51.640;9.566;2023-01-23T14:37:54;3.80;;;2.33;;
38609;SDS011;24367;51.640;9.566;2023-01-23T14:40:23;7.18;;;2.50;;
38609;SDS011;24367;51.640;9.566;2023-01-23T14:42:51;5.72;;;2.40;;
38609;SDS011;24367;51.640;9.566;2023-01-23T14:45:22;8.57;;;2.45;;
38609;SDS011;24367;51.640;9.566;2023-01-23T14:47:48;4.57;;;2.50;;
38609;SDS011;24367;51.640;9.566;2023-01-23T14:50:17;12.32;;;2.20;;
38609;SDS011;24367;51.640;9.566;2023-01-23T14:52:44;4.53;;;2.22;;
38609;SDS011;24367;51.640;9.566;2023-01-23T14:55:21;5.50;;;2.45;;
38609;SDS011;24367;51.640;9.566;2023-01-23T14:57:49;10.68;;;2.55;;
38609;SDS011;24367;51.640;9.566;2023-01-23T15:00:16;7.40;;;2.83;;
38609;SDS011;24367;51.640;9.566;2023-01-23T15:02:45;5.18;;;2.50;;
38609;SDS011;24367;51.640;9.566;2023-01-23T15:05:16;7.78;;;2.50;;
38609;SDS011;24367;51.640;9.566;2023-01-23T15:07:44;5.85;;;2.40;;
38609;SDS011;24367;51.640;9.566;2023-01-23T15:10:13;6.13;;;2.25;;
38609;SDS011;24367;51.640;9.566;2023-01-23T15:12:47;7.78;;;2.65;;
38609;SDS011;24367;51.640;9.566;2023-01-23T15:15:16;4.30;;;2.20;;
38609;SDS011;24367;51.640;9.566;2023-01-23T15:17:44;6.10;;;2.20;;
38609;SDS011;24367;51.640;9.566;2023-01-23T15:20:25;4.70;;;2.30;;
38609;SDS011;24367;51.640;9.566;2023-01-23T15:22:53;4.90;;;2.22;;
38609;SDS011;24367;51.640;9.566;2023-01-23T15:25:27;4.72;;;2.40;;
38609;SDS011;24367;51.640;9.566;2023-01-23T15:27:56;5.10;;;2.45;;